Time;durP1;ratioP1;P1;durP2;ratioP2;P2;SDS_P1;SDS_P2;PMS_P1;PMS_P2;Temp;Humidity;BMP_temperature;BMP_pressure;BME280_temperature;BME280_humidity;BME280_pressure;Samples;Min_cycle;Max_cycle;Signal;HPM_P1;HPM_P2
2021/12/08 00:00:54;;;;;;;24.40;12.43;;;28.40;89.00;;;;;;4975387;28;20346;-53
2021/12/08 00:03:23;;;;;;;22.50;12.02;;;28.40;88.90;;;;;;4977611;28;20117;-51
2021/12/08 00:05:51;;;;;;;24.98;12.93;;;28.30;88.70;;;;;;4974859;28;20061;-51
2021/12/08 00:08:20;;;;;;;23.38;11.52;;;28.30;88.80;;;;;;4964958;28;20031;-51
2021/12/08 00:13:18;;;;;;;20.45;11.18;;;28.30;88.40;;;;;;4965144;28;20086;-52
2021/12/08 00:15:50;;;;;;;20.73;10.48;;;28.30;88.10;;;;;;4965141;28;20031;-51
2021/12/08 00:18:23;;;;;;;20.17;9.88;;;28.30;87.90;;;;;;5001244;28;20094;-50
2021/12/08 00:20:52;;;;;;;22.77;8.93;;;28.30;87.70;;;;;;4984292;28;20081;-50
2021/12/08 00:23:20;;;;;;;17.50;8.82;;;28.30;87.60;;;;;;4980580;28;20295;-52
2021/12/08 00:25:48;;;;;;;17.52;7.68;;;28.30;87.30;;;;;;4975152;28;20085;-48
2021/12/08 00:28:14;;;;;;;20.20;9.02;;;28.30;87.10;;;;;;4981078;28;20042;-53
2021/12/08 00:30:45;;;;;;;19.83;8.90;;;28.30;86.90;;;;;;4983835;28;20064;-58
2021/12/08 00:33:13;;;;;;;25.70;11.25;;;28.30;86.70;;;;;;4984415;28;20209;-52
2021/12/08 00:35:47;;;;;;;20.63;11.93;;;28.30;86.80;;;;;;4983178;28;20047;-56
2021/12/08 00:38:17;;;;;;;26.38;13.13;;;28.30;86.30;;;;;;4983095;28;20027;-54
2021/12/08 00:40:44;;;;;;;23.02;9.65;;;28.30;86.60;;;;;;4983904;28;20025;-53
2021/12/08 00:43:12;;;;;;;24.67;15.15;;;28.30;86.20;;;;;;4984083;28;20046;-52
2021/12/08 00:45:38;;;;;;;16.40;11.45;;;28.30;86.40;;;;;;4984030;28;20070;-58
2021/12/08 00:48:05;;;;;;;23.75;13.30;;;28.30;86.20;;;;;;4982168;28;20053;-56
2021/12/08 00:50:38;;;;;;;27.48;13.73;;;28.30;86.10;;;;;;4982304;28;20030;-53
2021/12/08 00:53:05;;;;;;;28.63;19.13;;;28.30;86.20;;;;;;4983114;28;20045;-56
2021/12/08 00:55:33;;;;;;;68.40;59.22;;;28.30;86.00;;;;;;4983469;28;20072;-53
2021/12/08 00:58:00;;;;;;;63.97;47.17;;;28.20;86.00;;;;;;4983579;28;20031;-53
2021/12/08 01:00:30;;;;;;;53.58;37.28;;;28.20;86.00;;;;;;4983636;28;20033;-50
2021/12/08 01:02:58;;;;;;;52.90;33.92;;;28.20;85.90;;;;;;4983311;28;20050;-52
2021/12/08 01:05:33;;;;;;;44.63;30.95;;;28.20;86.00;;;;;;4983632;28;20023;-53
2021/12/08 01:08:00;;;;;;;70.15;34.08;;;28.20;86.10;;;;;;4983632;28;20027;-51
2021/12/08 01:10:28;;;;;;;56.95;36.50;;;28.20;86.30;;;;;;4983425;28;20019;-52
2021/12/08 01:12:55;;;;;;;62.75;32.47;;;28.20;86.30;;;;;;4983670;28;20093;-54
2021/12/08 01:15:24;;;;;;;45.95;29.63;;;28.10;86.30;;;;;;4983523;28;20023;-53
2021/12/08 01:17:50;;;;;;;43.58;24.67;;;28.10;86.50;;;;;;4983225;28;20045;-53
2021/12/08 01:20:18;;;;;;;33.47;23.15;;;28.10;86.10;;;;;;4983319;28;20026;-52
2021/12/08 01:22:45;;;;;;;36.38;20.85;;;28.10;85.90;;;;;;4983467;28;20077;-52
2021/12/08 01:25:12;;;;;;;31.65;20.30;;;28.10;85.90;;;;;;4983193;28;20023;-54
2021/12/08 01:27:39;;;;;;;37.50;21.63;;;28.10;85.90;;;;;;4983256;28;20019;-53
2021/12/08 01:30:07;;;;;;;29.10;18.60;;;28.00;85.90;;;;;;4983320;28;20026;-56
2021/12/08 01:32:34;;;;;;;26.02;19.27;;;28.10;85.80;;;;;;4983058;28;20087;-51
2021/12/08 01:35:01;;;;;;;27.10;19.65;;;28.00;85.60;;;;;;4983239;28;20046;-52
2021/12/08 01:37:28;;;;;;;29.05;16.60;;;28.00;85.60;;;;;;4982955;28;20334;-50
2021/12/08 01:39:54;;;;;;;24.42;15.35;;;28.00;85.80;;;;;;4982864;28;20033;-53
2021/12/08 01:42:32;;;;;;;20.15;13.05;;;28.00;85.60;;;;;;4983083;28;20023;-55
2021/12/08 01:48:07;;;;;;;22.13;14.60;;;27.90;86.20;;;;;;4981245;28;20035;-53
2021/12/08 01:50:34;;;;;;;24.25;14.02;;;27.90;86.30;;;;;;4982616;28;20105;-52
2021/12/08 01:53:01;;;;;;;43.53;28.38;;;27.80;85.50;;;;;;4982924;28;20027;-52
2021/12/08 01:55:27;;;;;;;35.08;20.95;;;27.80;85.70;;;;;;4982845;28;20307;-57
2021/12/08 01:57:54;;;;;;;47.80;29.00;;;27.90;85.60;;;;;;4982899;28;20033;-57
2021/12/08 02:00:36;;;;;;;74.70;47.55;;;27.80;85.50;;;;;;4982976;28;20037;-50
2021/12/08 02:03:03;;;;;;;107.68;63.00;;;27.80;85.60;;;;;;4982570;28;20035;-52
2021/12/08 02:05:30;;;;;;;110.22;65.18;;;27.80;85.50;;;;;;4983012;28;20023;-52
2021/12/08 02:07:57;;;;;;;108.72;56.08;;;27.80;85.60;;;;;;4982888;28;20018;-54
2021/12/08 02:10:25;;;;;;;70.90;41.92;;;27.80;85.50;;;;;;4982635;28;20023;-53
2021/12/08 02:12:52;;;;;;;56.40;33.42;;;27.80;85.60;;;;;;4982647;28;20304;-52
2021/12/08 02:15:20;;;;;;;60.15;30.30;;;27.80;85.50;;;;;;4982640;28;20023;-57
2021/12/08 02:17:50;;;;;;;73.15;38.75;;;27.80;85.50;;;;;;4982528;28;20042;-57
2021/12/08 02:20:20;;;;;;;80.70;44.80;;;27.70;85.60;;;;;;4982846;28;20019;-53
2021/12/08 02:22:47;;;;;;;62.55;35.13;;;27.80;85.50;;;;;;4982725;28;20030;-55
2021/12/08 02:25:20;;;;;;;78.28;32.50;;;27.70;85.40;;;;;;4982405;28;20060;-57
2021/12/08 02:27:48;;;;;;;41.83;25.50;;;27.70;85.40;;;;;;4982494;28;20027;-56
2021/12/08 02:49:04;;;;;;;29.30;15.60;;;27.70;85.40;;;;;;4982448;28;20023;-52
2021/12/08 02:51:31;;;;;;;24.45;13.65;;;27.60;85.40;;;;;;4982147;28;20019;-52
2021/12/08 02:53:59;;;;;;;24.27;13.05;;;27.60;85.40;;;;;;4982555;28;20031;-51
2021/12/08 02:56:26;;;;;;;21.42;12.15;;;27.60;85.30;;;;;;4982140;28;20053;-51
2021/12/08 02:58:52;;;;;;;18.33;11.32;;;27.60;85.50;;;;;;4982405;28;20099;-51
2021/12/08 03:01:19;;;;;;;13.40;8.80;;;27.60;85.30;;;;;;4982056;28;20094;-55
2021/12/08 03:03:46;;;;;;;18.85;9.40;;;27.60;85.30;;;;;;4981965;28;20051;-51
2021/12/08 03:06:13;;;;;;;21.38;9.20;;;27.60;85.30;;;;;;4981945;28;20246;-53
2021/12/08 03:08:40;;;;;;;13.60;7.57;;;27.60;85.20;;;;;;4982209;28;20055;-55
2021/12/08 03:11:07;;;;;;;13.20;7.55;;;27.50;85.10;;;;;;4981916;28;20245;-51
2021/12/08 03:13:38;;;;;;;18.38;10.68;;;27.60;85.10;;;;;;4982117;28;20072;-50
2021/12/08 03:16:06;;;;;;;13.07;7.70;;;27.60;85.10;;;;;;4982011;28;20023;-52
2021/12/08 03:18:35;;;;;;;15.25;7.53;;;27.50;85.10;;;;;;4982077;28;20110;-53
2021/12/08 03:21:04;;;;;;;18.20;10.82;;;27.50;85.10;;;;;;4981935;28;20307;-52
2021/12/08 03:23:50;;;;;;;20.50;10.63;;;27.50;84.90;;;;;;4981581;28;20042;-52
2021/12/08 03:26:24;;;;;;;17.08;11.35;;;27.50;85.00;;;;;;4981649;28;20015;-52
2021/12/08 03:28:59;;;;;;;16.17;9.50;;;27.50;84.90;;;;;;4982111;28;20192;-52
2021/12/08 03:31:31;;;;;;;14.07;9.32;;;27.50;84.90;;;;;;4981595;28;20407;-51
2021/12/08 03:33:58;;;;;;;12.93;9.60;;;27.40;85.10;;;;;;4981937;28;20362;-56
2021/12/08 03:36:25;;;;;;;16.85;11.00;;;27.40;85.10;;;;;;4981516;28;20323;-53
2021/12/08 03:38:52;;;;;;;17.10;8.45;;;27.40;84.90;;;;;;4981813;28;20357;-53
2021/12/08 03:41:18;;;;;;;14.82;9.70;;;27.40;84.90;;;;;;4981540;28;20027;-51
2021/12/08 03:43:45;;;;;;;13.25;8.60;;;27.40;84.80;;;;;;4981674;28;20215;-55
2021/12/08 03:46:16;;;;;;;13.85;6.43;;;27.40;84.80;;;;;;4982281;28;20046;-52
2021/12/08 03:48:48;;;;;;;16.50;8.90;;;27.40;84.90;;;;;;4984610;28;20023;-52
2021/12/08 03:51:16;;;;;;;12.85;7.80;;;27.40;84.70;;;;;;4984401;28;20068;-56
2021/12/08 03:53:43;;;;;;;14.10;8.18;;;27.40;84.80;;;;;;4984750;28;20438;-54
2021/12/08 03:56:09;;;;;;;14.25;9.18;;;27.30;84.60;;;;;;4984581;28;20108;-55
2021/12/08 03:58:36;;;;;;;10.13;6.47;;;27.30;84.70;;;;;;4984863;28;20033;-55
2021/12/08 04:01:05;;;;;;;10.05;5.65;;;27.30;84.80;;;;;;4984564;28;20026;-54
2021/12/08 04:03:33;;;;;;;10.82;5.40;;;27.30;85.00;;;;;;4984501;28;20047;-55
2021/12/08 04:06:07;;;;;;;11.60;5.72;;;27.20;85.10;;;;;;4984499;28;20302;-58
2021/12/08 04:08:45;;;;;;;17.30;5.68;;;27.20;85.00;;;;;;4984728;28;20376;-53
2021/12/08 04:11:13;;;;;;;15.20;6.90;;;27.20;85.10;;;;;;4984592;28;20030;-51
2021/12/08 04:13:50;;;;;;;14.70;6.65;;;27.20;85.20;;;;;;4984529;28;20094;-59
2021/12/08 04:16:21;;;;;;;16.67;7.22;;;27.20;85.30;;;;;;4984462;28;20030;-52
2021/12/08 04:18:48;;;;;;;23.65;9.43;;;27.20;85.50;;;;;;4984560;28;20345;-57
2021/12/08 04:21:16;;;;;;;20.25;8.63;;;27.20;85.60;;;;;;4984470;28;20070;-55
2021/12/08 04:23:44;;;;;;;20.20;9.45;;;27.20;85.70;;;;;;4984638;28;20034;-53
2021/12/08 04:26:25;;;;;;;22.75;10.10;;;27.10;85.80;;;;;;4984358;28;20364;-53
2021/12/08 04:28:52;;;;;;;24.88;10.23;;;27.10;86.10;;;;;;4984699;28;20038;-58
2021/12/08 04:31:24;;;;;;;22.52;10.75;;;27.10;86.20;;;;;;4980958;28;20029;-53
2021/12/08 04:33:55;;;;;;;19.57;9.87;;;27.10;86.40;;;;;;4977007;28;20034;-53
2021/12/08 04:36:24;;;;;;;21.05;10.57;;;27.10;86.60;;;;;;4970238;28;20282;-54
2021/12/08 04:38:56;;;;;;;21.67;11.10;;;27.10;86.70;;;;;;4975775;28;20027;-53
2021/12/08 04:41:32;;;;;;;23.58;11.70;;;27.10;87.10;;;;;;4983072;28;20085;-54
2021/12/08 04:44:11;;;;;;;23.20;11.05;;;27.10;87.30;;;;;;4984038;28;20039;-60
2021/12/08 04:52:13;;;;;;;20.23;11.02;;;27.00;87.50;;;;;;4977644;28;20033;-55
2021/12/08 05:00:43;;;;;;;21.05;9.57;;;27.00;87.50;;;;;;4974564;28;20081;-53
2021/12/08 05:06:03;;;;;;;15.43;8.98;;;27.00;87.60;;;;;;4983846;28;20022;-53
2021/12/08 05:08:41;;;;;;;14.10;7.95;;;27.00;87.80;;;;;;4978093;28;20298;-56
2021/12/08 05:11:32;;;;;;;14.77;8.48;;;26.90;87.60;;;;;;4968010;28;20043;-54
2021/12/08 05:14:05;;;;;;;16.80;8.05;;;27.00;87.70;;;;;;4960109;28;20039;-53
2021/12/08 05:16:34;;;;;;;16.98;8.25;;;26.90;87.60;;;;;;4964164;28;20030;-57
2021/12/08 05:19:04;;;;;;;24.05;8.05;;;26.90;87.60;;;;;;4964794;28;20027;-53
2021/12/08 05:21:39;;;;;;;19.02;7.75;;;26.90;87.80;;;;;;4964194;28;20023;-55
2021/12/08 05:24:20;;;;;;;17.42;7.80;;;26.90;87.90;;;;;;4964420;28;20042;-54
2021/12/08 05:26:51;;;;;;;16.20;7.43;;;26.90;88.00;;;;;;4977870;28;20061;-53
2021/12/08 05:29:28;;;;;;;10.63;6.97;;;26.90;88.10;;;;;;4983705;28;20034;-54
2021/12/08 05:31:57;;;;;;;14.80;7.20;;;26.90;88.10;;;;;;4981389;28;20023;-53
2021/12/08 05:34:24;;;;;;;14.50;7.15;;;26.90;88.30;;;;;;4974540;28;20030;-55
2021/12/08 05:36:51;;;;;;;15.40;6.25;;;26.90;88.20;;;;;;4983303;28;20018;-59
2021/12/08 05:39:21;;;;;;;11.07;6.72;;;26.80;88.00;;;;;;4983724;28;20042;-56
2021/12/08 05:41:53;;;;;;;12.40;6.00;;;26.80;87.80;;;;;;4983240;28;20038;-58
2021/12/08 05:44:20;;;;;;;16.45;6.68;;;26.80;88.00;;;;;;4983566;28;20095;-54
2021/12/08 05:46:51;;;;;;;13.40;6.07;;;26.80;88.10;;;;;;4983097;28;20371;-53
2021/12/08 05:49:19;;;;;;;13.27;6.10;;;26.80;88.00;;;;;;4975141;28;20087;-57
2021/12/08 05:51:48;;;;;;;14.68;6.07;;;26.80;88.00;;;;;;4963862;28;20019;-53
2021/12/08 05:54:20;;;;;;;13.10;6.05;;;26.80;88.10;;;;;;4963840;28;20035;-55
2021/12/08 05:56:50;;;;;;;10.20;5.45;;;26.70;88.00;;;;;;4972562;28;20045;-55
2021/12/08 05:59:18;;;;;;;11.10;6.00;;;26.80;88.10;;;;;;4983473;28;20043;-54
2021/12/08 06:01:59;;;;;;;14.90;5.70;;;26.70;87.90;;;;;;4983033;28;20029;-53
2021/12/08 06:04:28;;;;;;;14.65;6.50;;;26.80;87.90;;;;;;4982914;28;20270;-54
2021/12/08 06:06:57;;;;;;;10.60;6.03;;;26.70;88.00;;;;;;4982877;28;20027;-53
2021/12/08 06:09:25;;;;;;;13.63;5.97;;;26.70;88.00;;;;;;4982351;28;20080;-53
2021/12/08 06:11:53;;;;;;;12.35;6.25;;;26.70;88.10;;;;;;4982903;28;20315;-53
2021/12/08 06:14:24;;;;;;;13.25;5.90;;;26.70;87.90;;;;;;4983117;28;20041;-53
2021/12/08 06:16:53;;;;;;;14.90;5.63;;;26.70;87.90;;;;;;4982749;28;20035;-53
2021/12/08 06:19:20;;;;;;;13.48;5.82;;;26.70;88.00;;;;;;4983266;28;20360;-56
2021/12/08 06:21:49;;;;;;;12.00;5.70;;;26.70;88.00;;;;;;4982676;28;20084;-55
2021/12/08 06:24:17;;;;;;;13.30;5.38;;;26.60;87.80;;;;;;4982972;28;20029;-52
2021/12/08 06:26:44;;;;;;;14.60;5.65;;;26.70;87.80;;;;;;4982647;28;20069;-53
2021/12/08 06:29:15;;;;;;;9.20;4.88;;;26.70;87.70;;;;;;4982897;28;20085;-55
2021/12/08 06:31:42;;;;;;;12.60;5.35;;;26.60;87.60;;;;;;4982716;28;20031;-54
2021/12/08 06:34:09;;;;;;;8.93;4.95;;;26.70;87.70;;;;;;4982925;28;20080;-54
2021/12/08 06:36:42;;;;;;;8.63;4.82;;;26.60;87.50;;;;;;4982339;28;20031;-51
2021/12/08 06:39:15;;;;;;;10.05;4.90;;;26.70;87.50;;;;;;4982452;28;20348;-53
2021/12/08 06:41:51;;;;;;;10.65;4.93;;;26.60;87.30;;;;;;4982850;28;20311;-54
2021/12/08 06:44:23;;;;;;;9.77;4.85;;;26.60;87.40;;;;;;4982678;28;20026;-53
2021/12/08 06:46:51;;;;;;;8.90;4.82;;;26.60;87.30;;;;;;4982370;28;20088;-53
2021/12/08 06:49:19;;;;;;;8.75;4.63;;;26.60;87.30;;;;;;4982654;28;20030;-54
2021/12/08 06:51:54;;;;;;;7.00;4.20;;;26.60;87.40;;;;;;4982301;28;20361;-53
2021/12/08 06:54:26;;;;;;;11.55;4.60;;;26.60;87.50;;;;;;4982662;28;20041;-53
2021/12/08 06:57:07;;;;;;;7.93;4.90;;;26.60;87.50;;;;;;4982255;28;20052;-55
2021/12/08 06:59:40;;;;;;;10.30;4.85;;;26.70;87.50;;;;;;4982603;28;20097;-52
2021/12/08 07:02:20;;;;;;;10.80;4.70;;;26.60;87.60;;;;;;4982286;28;20023;-53
2021/12/08 07:04:56;;;;;;;7.75;4.60;;;26.60;87.50;;;;;;4981906;28;20102;-52
2021/12/08 07:07:27;;;;;;;8.98;4.93;;;26.60;87.50;;;;;;4982185;28;20034;-53
2021/12/08 07:10:08;;;;;;;10.68;5.22;;;26.60;87.50;;;;;;4982118;28;20244;-52
2021/12/08 07:12:44;;;;;;;13.07;5.55;;;26.60;87.70;;;;;;4981929;28;20101;-53
2021/12/08 07:15:36;;;;;;;7.93;4.93;;;26.60;87.70;;;;;;4982017;28;20027;-54
2021/12/08 07:18:09;;;;;;;7.47;5.00;;;26.60;87.60;;;;;;4973224;28;20038;-53
2021/12/08 07:20:44;;;;;;;7.43;4.95;;;26.60;87.50;;;;;;4983718;28;20026;-54
2021/12/08 07:23:24;;;;;;;7.75;4.53;;;26.60;87.70;;;;;;4985241;28;20043;-53
2021/12/08 07:25:58;;;;;;;11.10;5.07;;;26.60;87.70;;;;;;4985379;28;20029;-52
2021/12/08 07:28:27;;;;;;;8.70;4.60;;;26.60;87.50;;;;;;4984352;28;20326;-53
2021/12/08 07:30:59;;;;;;;8.20;4.60;;;26.60;87.50;;;;;;4985271;28;20022;-52
2021/12/08 07:33:27;;;;;;;9.07;4.75;;;26.60;87.40;;;;;;4985383;28;20027;-53
2021/12/08 07:35:57;;;;;;;7.18;4.35;;;26.60;87.60;;;;;;4985189;28;20027;-52
2021/12/08 07:38:27;;;;;;;7.70;4.57;;;26.60;87.60;;;;;;4985400;28;20035;-52
2021/12/08 07:41:06;;;;;;;6.60;3.90;;;26.60;87.60;;;;;;4985039;28;20039;-52
2021/12/08 07:43:34;;;;;;;7.53;4.63;;;26.60;87.50;;;;;;4984223;28;20315;-56
2021/12/08 07:46:08;;;;;;;9.48;4.30;;;26.60;87.60;;;;;;4984986;28;20023;-58
2021/12/08 07:48:40;;;;;;;9.23;4.47;;;26.60;87.60;;;;;;4985493;28;20061;-53
2021/12/08 07:51:18;;;;;;;8.38;4.63;;;26.60;87.50;;;;;;4985051;28;20219;-52
2021/12/08 07:53:45;;;;;;;7.05;3.95;;;26.60;87.30;;;;;;4985208;28;20101;-52
2021/12/08 07:56:16;;;;;;;8.88;4.55;;;26.60;87.30;;;;;;4984902;28;20356;-53
2021/12/08 07:58:46;;;;;;;8.93;4.68;;;26.60;87.10;;;;;;4984966;28;20330;-53
2021/12/08 08:01:19;;;;;;;9.98;4.88;;;26.60;87.10;;;;;;4984874;28;20332;-52
2021/12/08 08:03:47;;;;;;;9.15;4.60;;;26.60;87.30;;;;;;4984780;28;20050;-53
2021/12/08 08:06:22;;;;;;;6.53;4.60;;;26.60;87.30;;;;;;4984811;28;20019;-52
2021/12/08 08:08:49;;;;;;;9.77;4.75;;;26.60;87.10;;;;;;4985154;28;20027;-53
2021/12/08 08:11:27;;;;;;;7.63;5.20;;;26.60;87.30;;;;;;4984903;28;20086;-56
2021/12/08 08:13:54;;;;;;;10.23;4.75;;;26.60;87.40;;;;;;4984979;28;20315;-53
2021/12/08 08:16:25;;;;;;;7.10;4.43;;;26.50;87.40;;;;;;4984867;28;20192;-55
2021/12/08 08:19:02;;;;;;;6.72;4.68;;;26.50;87.30;;;;;;4984754;28;20027;-53
2021/12/08 08:21:31;;;;;;;8.73;4.50;;;26.50;87.90;;;;;;4984712;28;20050;-54
2021/12/08 08:24:00;;;;;;;10.18;4.50;;;26.50;87.20;;;;;;4984684;28;20253;-51
2021/12/08 08:26:29;;;;;;;7.20;4.68;;;26.50;87.30;;;;;;4984628;28;20040;-52
2021/12/08 08:28:57;;;;;;;8.23;4.60;;;26.50;87.30;;;;;;4984861;28;20090;-53
2021/12/08 08:31:40;;;;;;;7.75;4.20;;;26.50;87.40;;;;;;4983614;28;20307;-53
2021/12/08 08:34:09;;;;;;;14.85;4.90;;;26.50;87.30;;;;;;4983573;28;20069;-52
2021/12/08 08:36:41;;;;;;;12.00;4.93;;;26.50;87.40;;;;;;4984232;28;20026;-52
2021/12/08 08:39:21;;;;;;;7.20;4.65;;;26.50;87.40;;;;;;4984706;28;20034;-53
2021/12/08 08:41:59;;;;;;;7.65;4.13;;;26.50;87.50;;;;;;4984295;28;20223;-56
2021/12/08 08:44:58;;;;;;;9.57;4.50;;;26.50;87.70;;;;;;4984649;28;20045;-53
2021/12/08 08:47:56;;;;;;;10.10;4.60;;;26.40;87.80;;;;;;4983961;28;20023;-53
2021/12/08 08:50:31;;;;;;;6.05;4.30;;;26.40;88.00;;;;;;4983997;28;20116;-55
2021/12/08 08:52:59;;;;;;;8.50;4.13;;;26.40;87.90;;;;;;4984065;28;20042;-54
2021/12/08 08:55:33;;;;;;;7.90;4.20;;;26.40;88.00;;;;;;4984000;28;20086;-56
2021/12/08 08:58:02;;;;;;;10.18;4.00;;;26.40;87.70;;;;;;4984069;28;20050;-60
2021/12/08 09:00:41;;;;;;;8.00;4.20;;;26.30;87.50;;;;;;4984044;28;20413;-53
2021/12/08 09:03:13;;;;;;;6.60;4.32;;;26.30;87.50;;;;;;4983733;28;20063;-55
2021/12/08 09:05:55;;;;;;;4.93;3.55;;;26.30;87.50;;;;;;4983987;28;20090;-52
2021/12/08 09:08:25;;;;;;;7.10;4.07;;;26.30;87.40;;;;;;4983613;28;20429;-52
2021/12/08 09:11:09;;;;;;;9.73;4.63;;;26.30;87.30;;;;;;4983799;28;20045;-52
2021/12/08 09:13:53;;;;;;;6.93;3.60;;;26.30;87.30;;;;;;4983971;28;20031;-54
2021/12/08 09:16:28;;;;;;;7.57;3.90;;;26.30;87.20;;;;;;4983689;28;20046;-51
2021/12/08 09:19:05;;;;;;;6.75;3.90;;;26.30;87.10;;;;;;4983928;28;20052;-58
2021/12/08 09:21:38;;;;;;;6.40;4.20;;;26.30;87.20;;;;;;4983729;28;20338;-52
2021/12/08 09:24:24;;;;;;;6.10;3.88;;;26.30;87.10;;;;;;4983732;28;20034;-57
2021/12/08 09:26:56;;;;;;;11.32;4.40;;;26.30;87.00;;;;;;4983536;28;20089;-56
2021/12/08 09:29:29;;;;;;;8.85;3.78;;;26.30;87.10;;;;;;4983803;28;20027;-57
2021/12/08 09:32:06;;;;;;;5.30;3.97;;;26.30;87.20;;;;;;4983485;28;20068;-56
2021/12/08 09:34:40;;;;;;;7.80;4.50;;;26.30;87.10;;;;;;4983754;28;20184;-57
2021/12/08 09:37:14;;;;;;;13.18;4.18;;;26.30;87.20;;;;;;4983408;28;20019;-55
2021/12/08 09:39:50;;;;;;;7.72;3.80;;;26.30;87.20;;;;;;4983679;28;20029;-55
2021/12/08 09:42:35;;;;;;;8.63;4.50;;;26.20;87.10;;;;;;4983270;28;20029;-52
2021/12/08 09:45:13;;;;;;;7.78;3.80;;;26.30;87.30;;;;;;4982136;28;20035;-52
2021/12/08 09:47:39;;;;;;;8.70;3.95;;;26.20;87.20;;;;;;4983118;28;20242;-58
2021/12/08 09:50:09;;;;;;;9.80;4.00;;;26.20;87.20;;;;;;4983215;28;20042;-53
2021/12/08 09:52:37;;;;;;;8.80;3.38;;;26.20;87.10;;;;;;4981953;28;20270;-52
2021/12/08 09:55:06;;;;;;;6.60;3.75;;;26.20;87.40;;;;;;4983134;28;20215;-58
2021/12/08 09:57:33;;;;;;;7.15;4.07;;;26.20;87.10;;;;;;4983061;28;20311;-57
2021/12/08 10:00:00;;;;;;;8.30;4.18;;;26.20;86.90;;;;;;4983094;28;20080;-52
2021/12/08 10:02:34;;;;;;;8.85;4.80;;;26.20;86.70;;;;;;4983093;28;20064;-54
2021/12/08 10:05:07;;;;;;;11.38;4.78;;;26.20;86.70;;;;;;4982799;28;20054;-53
2021/12/08 10:07:33;;;;;;;9.13;4.70;;;26.20;86.50;;;;;;4983088;28;20049;-53
2021/12/08 10:10:00;;;;;;;8.73;5.38;;;26.30;86.50;;;;;;4982954;28;20019;-55
2021/12/08 10:12:27;;;;;;;9.70;4.82;;;26.20;86.30;;;;;;4982700;28;20019;-57
2021/12/08 10:14:57;;;;;;;8.73;4.97;;;26.20;86.40;;;;;;4982829;28;20025;-56
2021/12/08 10:20:51;;;;;;;13.88;5.38;;;26.20;86.30;;;;;;4982617;28;20146;-52
2021/12/08 10:23:20;;;;;;;;;;;26.20;86.50;;;;;;4983322;28;20034;-52
2021/12/08 10:25:55;;;;;;;9.10;5.60;;;26.20;86.70;;;;;;4982829;28;19902;-52
2021/12/08 10:28:30;;;;;;;10.35;5.13;;;26.10;86.70;;;;;;4982610;28;20061;-54
2021/12/08 10:31:28;;;;;;;7.65;5.10;;;26.10;86.70;;;;;;4982759;28;20027;-51
2021/12/08 10:36:58;;;;;;;7.72;4.97;;;26.10;86.80;;;;;;5026241;28;20058;-56
2021/12/08 10:39:30;;;;;;;8.35;4.93;;;26.10;86.90;;;;;;4982851;28;20027;-55
2021/12/08 10:42:03;;;;;;;15.35;5.30;;;26.10;87.00;;;;;;4982243;28;20019;-56
2021/12/08 10:44:46;;;;;;;9.70;5.28;;;26.10;87.10;;;;;;4982881;28;20038;-57
2021/12/08 10:47:20;;;;;;;10.45;4.97;;;26.10;87.10;;;;;;4982225;28;20043;-54
2021/12/08 10:55:14;;;;;;;12.48;5.45;;;26.10;87.10;;;;;;4981946;28;20054;-58
2021/12/08 10:57:40;;;;;;;9.20;4.78;;;26.10;87.10;;;;;;4982098;28;20022;-58
2021/12/08 11:00:20;;;;;;;10.80;5.05;;;26.10;87.10;;;;;;4982383;28;20077;-57
2021/12/08 11:02:53;;;;;;;10.95;4.88;;;26.10;87.20;;;;;;4981908;28;20046;-56
2021/12/08 11:05:25;;;;;;;9.75;5.28;;;26.10;87.20;;;;;;4980907;28;20067;-58
2021/12/08 11:08:19;;;;;;;13.15;5.28;;;26.10;87.20;;;;;;4982129;28;20042;-57
2021/12/08 11:10:57;;;;;;;14.55;5.25;;;26.10;87.40;;;;;;4982092;28;20054;-57
2021/12/08 11:13:36;;;;;;;14.60;5.65;;;26.10;87.80;;;;;;4982028;28;20014;-58
2021/12/08 11:16:08;;;;;;;12.23;5.15;;;26.10;87.90;;;;;;4981929;28;20397;-52
2021/12/08 11:18:39;;;;;;;14.55;5.15;;;26.10;88.20;;;;;;4982219;28;20288;-55
2021/12/08 11:21:16;;;;;;;11.63;4.82;;;26.10;88.00;;;;;;4982011;28;20046;-55
2021/12/08 11:23:46;;;;;;;12.25;5.30;;;26.20;88.20;;;;;;4982113;28;20027;-54
2021/12/08 11:26:14;;;;;;;14.23;5.20;;;26.20;88.20;;;;;;4981689;28;20027;-53
2021/12/08 11:28:42;;;;;;;11.25;5.07;;;26.20;88.30;;;;;;4982226;28;20018;-63
2021/12/08 11:31:14;;;;;;;30.27;5.93;;;26.20;88.50;;;;;;4981814;28;20023;-54
2021/12/08 11:33:47;;;;;;;18.52;5.35;;;26.20;88.70;;;;;;4981781;28;20019;-52
2021/12/08 11:36:25;;;;;;;21.52;9.60;;;26.30;88.70;;;;;;4981762;28;20397;-52
2021/12/08 11:38:52;;;;;;;22.35;14.70;;;26.30;89.10;;;;;;4981175;28;20218;-52
2021/12/08 11:41:26;;;;;;;22.52;9.68;;;26.30;89.40;;;;;;4980618;28;20220;-54
2021/12/08 11:43:55;;;;;;;21.90;7.78;;;26.30;89.80;;;;;;4981808;28;20030;-55
2021/12/08 11:46:23;;;;;;;11.57;8.20;;;26.30;90.00;;;;;;4981605;28;20034;-54
2021/12/08 11:49:04;;;;;;;17.00;6.65;;;26.30;89.70;;;;;;4981710;28;20026;-53
2021/12/08 11:51:43;;;;;;;16.92;7.20;;;26.30;90.00;;;;;;4981351;28;20110;-55
2021/12/08 11:54:36;;;;;;;14.63;6.88;;;26.30;90.10;;;;;;4981861;28;20192;-57
2021/12/08 11:57:25;;;;;;;16.90;6.90;;;26.30;89.70;;;;;;4981491;28;20031;-56
2021/12/08 12:00:06;;;;;;;13.38;6.38;;;26.30;89.80;;;;;;4981384;28;20042;-52
2021/12/08 12:02:44;;;;;;;35.70;8.55;;;26.30;89.80;;;;;;4981452;28;20334;-51
2021/12/08 12:05:20;;;;;;;34.95;7.47;;;26.30;89.60;;;;;;4981234;28;20049;-53
2021/12/08 12:07:48;;;;;;;25.17;6.80;;;26.30;89.60;;;;;;4983372;28;20217;-53
2021/12/08 12:10:47;;;;;;;23.52;6.65;;;26.30;89.40;;;;;;4984595;28;20050;-54
2021/12/08 12:13:14;;;;;;;25.02;6.30;;;26.30;89.50;;;;;;4984791;28;20284;-55
2021/12/08 12:15:47;;;;;;;15.38;5.60;;;26.30;89.60;;;;;;4984480;28;20262;-56
2021/12/08 12:18:16;;;;;;;19.80;6.05;;;26.40;89.70;;;;;;4983715;28;20291;-54
2021/12/08 12:21:10;;;;;;;17.27;6.07;;;26.40;89.90;;;;;;4983310;28;20034;-63
2021/12/08 12:23:58;;;;;;;17.65;5.45;;;26.40;89.90;;;;;;4981434;28;20319;-56
2021/12/08 12:26:56;;;;;;;17.10;5.60;;;26.40;90.00;;;;;;4983490;28;20026;-55
2021/12/08 12:29:54;;;;;;;19.75;5.90;;;26.40;89.90;;;;;;4984725;28;20026;-52
2021/12/08 12:32:52;;;;;;;22.65;6.15;;;26.40;90.00;;;;;;4984263;28;20018;-52
2021/12/08 12:35:24;;;;;;;16.83;6.15;;;26.50;90.00;;;;;;4984144;28;20057;-52
2021/12/08 12:38:04;;;;;;;17.27;5.95;;;26.50;89.80;;;;;;4984571;28;20030;-55
2021/12/08 12:40:37;;;;;;;20.88;5.60;;;26.50;89.60;;;;;;4984380;28;20254;-52
2021/12/08 12:43:05;;;;;;;28.90;6.03;;;26.50;89.20;;;;;;4984254;28;20034;-53
2021/12/08 12:45:43;;;;;;;18.92;5.63;;;26.50;89.10;;;;;;4984071;28;20265;-53
2021/12/08 12:48:11;;;;;;;16.15;5.07;;;26.60;89.00;;;;;;4984148;28;20037;-54
2021/12/08 12:51:08;;;;;;;21.73;10.77;;;26.60;88.80;;;;;;4984103;28;20386;-56
2021/12/08 12:53:35;;;;;;;24.83;10.25;;;26.60;88.70;;;;;;4984167;28;20053;-52
2021/12/08 12:56:02;;;;;;;19.05;9.60;;;26.60;88.40;;;;;;4984051;28;20026;-52
2021/12/08 12:58:49;;;;;;;23.08;8.85;;;26.60;88.20;;;;;;4984297;28;20030;-52
2021/12/08 13:01:28;;;;;;;17.38;7.47;;;26.70;88.10;;;;;;4984043;28;20377;-55
2021/12/08 13:04:04;;;;;;;19.00;5.88;;;26.70;87.90;;;;;;4983698;28;20061;-51
2021/12/08 13:06:47;;;;;;;14.88;6.30;;;26.70;87.10;;;;;;4983492;28;20026;-53
2021/12/08 13:09:37;;;;;;;10.70;6.00;;;26.70;87.00;;;;;;4964912;28;20273;-53
2021/12/08 13:12:07;;;;;;;15.43;5.53;;;26.70;85.80;;;;;;4964799;28;20020;-53
2021/12/08 13:14:34;;;;;;;17.50;5.68;;;26.70;86.00;;;;;;4964796;28;20027;-53
2021/12/08 13:17:14;;;;;;;13.60;5.63;;;26.80;85.90;;;;;;4973917;28;20028;-54
2021/12/08 13:19:45;;;;;;;14.30;5.60;;;26.70;85.80;;;;;;4983980;28;20050;-51
2021/12/08 13:22:51;;;;;;;10.98;6.00;;;26.80;85.60;;;;;;4983874;28;20078;-53
2021/12/08 13:25:42;;;;;;;9.90;5.55;;;26.80;85.60;;;;;;4981974;28;20062;-52
2021/12/08 13:29:03;;;;;;;26.33;6.65;;;26.80;86.20;;;;;;4983721;28;20136;-51
2021/12/08 13:34:02;;;;;;;14.45;5.32;;;26.80;86.70;;;;;;4983824;28;20081;-57
2021/12/08 13:36:32;;;;;;;10.90;5.57;;;26.80;86.90;;;;;;4983336;28;20019;-53
2021/12/08 13:38:59;;;;;;;20.35;5.57;;;26.80;87.10;;;;;;4983661;28;20222;-53
2021/12/08 13:41:29;;;;;;;12.38;5.85;;;26.80;87.10;;;;;;4983544;28;20019;-53
2021/12/08 13:43:57;;;;;;;14.68;8.65;;;26.90;87.60;;;;;;4983459;28;20034;-53
2021/12/08 13:46:46;;;;;;;16.95;9.00;;;26.90;87.70;;;;;;4983320;28;20019;-55
2021/12/08 13:49:19;;;;;;;19.45;7.45;;;26.90;88.00;;;;;;4983532;28;20128;-54
2021/12/08 13:52:07;;;;;;;16.13;7.35;;;26.90;87.90;;;;;;4983267;28;20057;-52
2021/12/08 13:54:41;;;;;;;21.00;9.00;;;26.90;88.40;;;;;;4983518;28;20027;-54
2021/12/08 13:57:32;;;;;;;13.82;8.35;;;26.90;88.20;;;;;;4983338;28;20029;-56
2021/12/08 14:00:08;;;;;;;26.77;9.65;;;27.00;88.30;;;;;;4983064;28;20478;-57